createdAt,value
2023-05-05T00:00:15.553Z,4.17
2023-05-05T00:03:06.359Z,4.90
2023-05-05T00:05:57.512Z,5.00
2023-05-05T00:08:46.302Z,4.73
2023-05-05T00:11:34.971Z,5.33
2023-05-05T00:14:24.008Z,4.87
2023-05-05T00:17:12.719Z,4.90
2023-05-05T00:20:01.501Z,4.50
2023-05-05T00:22:51.503Z,4.67
2023-05-05T00:25:41.141Z,4.37
2023-05-05T00:28:29.763Z,4.93
2023-05-05T00:31:19.031Z,4.57
2023-05-05T00:34:10.410Z,4.60
2023-05-05T00:36:58.997Z,4.80
2023-05-05T00:39:48.996Z,4.73
2023-05-05T00:42:42.509Z,4.47
2023-05-05T00:45:31.734Z,4.83
2023-05-05T00:48:24.430Z,4.53
2023-05-05T00:51:13.097Z,4.53
2023-05-05T00:54:02.371Z,5.40
2023-05-05T00:56:53.429Z,4.90
2023-05-05T00:59:43.096Z,5.10
2023-05-05T01:02:32.221Z,5.40
2023-05-05T01:05:24.672Z,4.93
2023-05-05T01:08:27.698Z,5.10
2023-05-05T01:11:23.808Z,5.60
2023-05-05T01:14:18.146Z,5.77
2023-05-05T01:17:16.066Z,5.70
2023-05-05T01:20:17.500Z,5.03
2023-05-05T01:23:08.506Z,5.33
2023-05-05T01:26:23.168Z,5.33
2023-05-05T01:29:35.698Z,5.70
2023-05-05T01:32:29.447Z,5.73
2023-05-05T01:35:24.074Z,6.17
2023-05-05T01:38:17.762Z,5.77
2023-05-05T01:41:12.924Z,5.37
2023-05-05T01:44:03.893Z,5.47
2023-05-05T01:46:53.455Z,5.47
2023-05-05T01:49:47.284Z,5.97
2023-05-05T01:52:39.863Z,5.40
2023-05-05T01:55:30.762Z,5.30
2023-05-05T01:58:20.706Z,5.00
2023-05-05T02:01:10.712Z,5.70
2023-05-05T02:04:00.722Z,5.83
2023-05-05T02:06:53.490Z,5.53
2023-05-05T02:09:45.429Z,5.97
2023-05-05T02:12:35.227Z,6.07
2023-05-05T02:15:30.313Z,5.90
2023-05-05T02:18:21.223Z,5.20
2023-05-05T02:21:14.752Z,5.77
2023-05-05T02:24:07.981Z,5.80
2023-05-05T02:27:08.481Z,5.67
2023-05-05T02:29:59.803Z,5.93
2023-05-05T02:32:53.539Z,6.03
2023-05-05T02:35:44.008Z,6.40
2023-05-05T02:38:42.690Z,6.50
2023-05-05T02:41:37.313Z,6.10
2023-05-05T02:44:33.033Z,6.40
2023-05-05T02:47:22.498Z,6.20
2023-05-05T02:50:13.575Z,6.30
2023-05-05T02:53:08.851Z,6.10
2023-05-05T02:56:09.291Z,6.17
2023-05-05T02:59:16.995Z,6.33
2023-05-05T03:02:16.837Z,5.53
2023-05-05T03:05:11.310Z,5.87
2023-05-05T03:08:11.058Z,5.97
2023-05-05T03:11:08.008Z,5.40
2023-05-05T03:14:08.788Z,5.87
2023-05-05T03:16:58.336Z,6.03
2023-05-05T03:19:49.001Z,5.27
2023-05-05T03:22:38.178Z,5.10
2023-05-05T03:25:43.614Z,4.90
2023-05-05T03:28:36.326Z,5.60
2023-05-05T03:31:33.890Z,5.60
2023-05-05T03:34:24.021Z,5.47
2023-05-05T03:37:13.176Z,5.93
2023-05-05T03:40:03.951Z,5.80
2023-05-05T03:42:54.258Z,4.80
2023-05-05T03:45:43.145Z,5.30
2023-05-05T03:48:34.922Z,5.47
2023-05-05T03:51:26.925Z,5.23
2023-05-05T03:54:16.711Z,5.33
2023-05-05T03:57:05.470Z,4.90
2023-05-05T03:59:54.198Z,5.40
2023-05-05T04:02:43.997Z,5.10
2023-05-05T04:05:36.868Z,5.03
2023-05-05T04:08:26.392Z,4.87
2023-05-05T04:11:16.152Z,4.67
2023-05-05T04:14:04.969Z,4.50
2023-05-05T04:16:53.789Z,4.50
2023-05-05T04:19:43.266Z,4.90
2023-05-05T04:22:33.565Z,4.70
2023-05-05T04:25:23.283Z,5.20
2023-05-05T04:28:15.202Z,4.93
2023-05-05T04:31:05.165Z,4.80
2023-05-05T04:33:57.396Z,4.40
2023-05-05T04:36:46.803Z,4.60
2023-05-05T04:39:37.896Z,4.40
2023-05-05T04:42:26.773Z,5.30
2023-05-05T04:45:15.622Z,4.87
2023-05-05T04:48:05.643Z,4.70
2023-05-05T04:50:54.717Z,4.80
2023-05-05T04:53:43.505Z,4.40
2023-05-05T04:56:34.103Z,4.90
2023-05-05T04:59:22.793Z,4.77
2023-05-05T05:02:12.336Z,4.10
2023-05-05T05:05:01.027Z,4.77
2023-05-05T05:07:49.846Z,4.17
2023-05-05T05:10:38.651Z,4.50
2023-05-05T05:13:28.731Z,4.60
2023-05-05T05:16:17.663Z,4.33
2023-05-05T05:19:06.574Z,4.33
2023-05-05T05:21:55.433Z,4.23
2023-05-05T05:24:44.582Z,3.97
2023-05-05T05:27:35.640Z,3.90
2023-05-05T05:30:26.570Z,4.53
2023-05-05T05:33:15.889Z,4.30
2023-05-05T05:36:07.659Z,4.07
2023-05-05T05:38:56.434Z,3.60
2023-05-05T05:41:45.403Z,3.90
2023-05-05T05:44:34.788Z,3.37
2023-05-05T05:47:25.525Z,3.83
2023-05-05T05:50:14.543Z,4.00
2023-05-05T05:53:03.863Z,3.50
2023-05-05T05:55:53.083Z,3.30
2023-05-05T05:58:42.464Z,3.17
2023-05-05T06:01:32.543Z,3.33
2023-05-05T06:04:22.803Z,3.40
2023-05-05T06:07:11.664Z,3.53
2023-05-05T06:10:14.488Z,3.50
2023-05-05T06:13:11.686Z,3.03
2023-05-05T06:16:04.865Z,3.20
2023-05-05T06:18:53.707Z,2.43
2023-05-05T06:21:43.959Z,2.77
2023-05-05T06:24:35.045Z,2.80
2023-05-05T06:27:23.959Z,3.10
2023-05-05T06:30:14.739Z,2.70
2023-05-05T06:33:03.578Z,3.30
2023-05-05T06:35:53.189Z,2.90
2023-05-05T06:38:43.235Z,2.50
2023-05-05T06:41:32.391Z,3.07
2023-05-05T06:44:21.101Z,2.70
2023-05-05T06:47:09.938Z,2.97
2023-05-05T06:50:00.202Z,2.90
2023-05-05T06:52:49.159Z,2.77
2023-05-05T06:55:39.970Z,2.67
2023-05-05T06:58:30.169Z,2.90
2023-05-05T07:01:24.010Z,2.60
2023-05-05T07:04:13.161Z,2.73
2023-05-05T07:07:01.922Z,2.80
2023-05-05T07:09:52.193Z,2.90
2023-05-05T07:12:42.794Z,3.00
2023-05-05T07:15:31.678Z,2.80
2023-05-05T07:18:20.491Z,2.80
2023-05-05T07:21:09.760Z,2.70
2023-05-05T07:23:58.901Z,3.63
2023-05-05T07:26:48.313Z,2.33
2023-05-05T07:29:39.059Z,2.57
2023-05-05T07:32:27.848Z,2.47
2023-05-05T07:35:16.691Z,2.20
2023-05-05T07:38:08.155Z,2.37
2023-05-05T07:40:57.500Z,2.70
2023-05-05T07:43:46.205Z,3.43
2023-05-05T07:46:37.827Z,2.27
2023-05-05T07:49:26.815Z,2.70
2023-05-05T07:52:15.578Z,2.17
2023-05-05T07:55:05.524Z,2.47
2023-05-05T07:57:54.338Z,2.80
2023-05-05T08:00:43.834Z,2.27
2023-05-05T08:03:35.817Z,2.30
2023-05-05T08:06:25.689Z,2.57
2023-05-05T08:09:14.838Z,2.30
2023-05-05T08:12:03.963Z,2.10
2023-05-05T08:14:52.700Z,2.20
2023-05-05T08:17:49.412Z,2.20
2023-05-05T08:20:44.433Z,2.47
2023-05-05T08:23:33.235Z,2.10
2023-05-05T08:26:22.966Z,2.30
2023-05-05T08:29:11.705Z,2.40
2023-05-05T08:32:00.744Z,2.40
2023-05-05T08:34:49.551Z,2.03
2023-05-05T08:37:40.747Z,2.43
2023-05-05T08:40:34.173Z,2.20
2023-05-05T08:43:23.986Z,2.20
2023-05-05T08:46:13.316Z,1.97
2023-05-05T08:49:04.549Z,2.30
2023-05-05T08:51:55.723Z,2.13
2023-05-05T08:54:52.522Z,1.93
2023-05-05T08:57:50.125Z,1.90
2023-05-05T09:00:39.186Z,1.97
2023-05-05T09:03:31.286Z,2.10
2023-05-05T09:06:23.474Z,2.10
2023-05-05T09:09:12.770Z,1.90
2023-05-05T09:12:03.962Z,2.20
2023-05-05T09:14:53.998Z,2.37
2023-05-05T09:17:43.541Z,2.17
2023-05-05T09:20:35.922Z,1.93
2023-05-05T09:23:25.257Z,2.20
2023-05-05T09:26:14.461Z,2.37
2023-05-05T09:29:05.388Z,2.00
2023-05-05T09:32:06.013Z,2.07
2023-05-05T09:35:03.935Z,2.20
2023-05-05T09:37:52.779Z,2.00
2023-05-05T09:40:48.040Z,1.97
2023-05-05T09:43:52.124Z,2.07
2023-05-05T09:46:51.688Z,1.97
2023-05-05T09:49:41.046Z,1.67
2023-05-05T09:52:32.077Z,2.17
2023-05-05T09:55:20.953Z,1.97
2023-05-05T09:58:20.224Z,1.97
2023-05-05T10:01:23.617Z,1.97
2023-05-05T10:04:27.094Z,1.90
2023-05-05T10:07:25.436Z,1.97
2023-05-05T10:10:18.382Z,2.00
2023-05-05T10:13:07.284Z,2.40
2023-05-05T10:15:59.028Z,1.87
2023-05-05T10:18:49.816Z,1.80
2023-05-05T10:21:42.149Z,1.80
2023-05-05T10:24:39.100Z,1.80
2023-05-05T10:27:30.239Z,1.70
2023-05-05T10:30:24.444Z,2.00
2023-05-05T10:33:31.722Z,1.97
2023-05-05T10:36:22.191Z,2.83
2023-05-05T10:39:12.713Z,1.60
2023-05-05T10:42:03.902Z,1.70
2023-05-05T10:44:53.532Z,1.70
2023-05-05T10:47:44.530Z,1.60
2023-05-05T10:50:39.908Z,1.60
2023-05-05T10:53:33.242Z,1.43
2023-05-05T10:56:29.199Z,1.40
2023-05-05T10:59:47.928Z,1.63
2023-05-05T11:02:37.326Z,1.50
2023-05-05T11:05:26.406Z,1.50
2023-05-05T11:08:27.151Z,3.20
2023-05-05T11:11:17.795Z,1.77
2023-05-05T11:14:23.712Z,1.90
2023-05-05T11:17:45.601Z,2.20
2023-05-05T11:21:02.721Z,2.03
2023-05-05T11:23:53.054Z,1.60
2023-05-05T11:26:52.929Z,1.50
2023-05-05T11:30:08.067Z,1.53
2023-05-05T11:33:24.604Z,1.87
2023-05-05T11:36:15.426Z,1.83
2023-05-05T11:39:24.308Z,1.50
2023-05-05T11:42:25.944Z,1.80
2023-05-05T11:45:25.226Z,1.60
2023-05-05T11:48:27.121Z,1.70
2023-05-05T11:51:17.576Z,1.30
2023-05-05T11:54:25.583Z,1.70
2023-05-05T11:57:32.765Z,1.53
2023-05-05T12:00:34.054Z,1.73
2023-05-05T12:03:23.220Z,1.67
2023-05-05T12:06:12.143Z,1.33
2023-05-05T12:08:41.731Z,1.50
2023-05-05T12:11:12.310Z,1.40
2023-05-05T12:14:10.399Z,1.50
2023-05-05T12:16:42.436Z,1.63
2023-05-05T12:19:14.480Z,1.67
2023-05-05T12:21:46.888Z,1.90
2023-05-05T12:24:16.060Z,1.33
2023-05-05T12:26:44.918Z,1.50
2023-05-05T12:29:15.455Z,1.50
2023-05-05T12:31:45.561Z,1.47
2023-05-05T12:34:14.811Z,1.43
2023-05-05T12:36:47.162Z,1.47
2023-05-05T12:39:15.744Z,1.63
2023-05-05T12:41:44.718Z,1.57
2023-05-05T12:44:13.496Z,1.27
2023-05-05T12:46:52.458Z,1.60
2023-05-05T12:49:22.842Z,1.47
2023-05-05T12:51:55.601Z,1.13
2023-05-05T12:54:29.522Z,1.37
2023-05-05T12:57:12.656Z,1.60
2023-05-05T12:59:41.691Z,1.27
2023-05-05T13:02:11.810Z,1.27
2023-05-05T13:04:50.340Z,1.37
2023-05-05T13:07:20.600Z,1.27
2023-05-05T13:09:49.539Z,1.33
2023-05-05T13:12:19.676Z,1.40
2023-05-05T13:14:48.257Z,1.30
2023-05-05T13:17:18.819Z,1.30
2023-05-05T13:19:47.383Z,1.40
2023-05-05T13:23:16.672Z,1.20
2023-05-05T13:25:51.289Z,1.40
2023-05-05T13:28:19.824Z,1.20
2023-05-05T13:30:48.407Z,1.40
2023-05-05T13:33:18.320Z,1.10
2023-05-05T13:35:46.852Z,1.27
2023-05-05T13:38:15.548Z,1.20
2023-05-05T13:40:43.995Z,1.17
2023-05-05T13:43:12.790Z,1.30
2023-05-05T13:45:41.973Z,1.50
2023-05-05T13:48:10.640Z,1.10
2023-05-05T13:50:40.596Z,1.40
2023-05-05T13:53:09.022Z,0.90
2023-05-05T13:55:38.149Z,1.30
2023-05-05T13:58:06.751Z,1.23
2023-05-05T14:00:35.988Z,1.30
2023-05-05T14:03:04.708Z,1.17
2023-05-05T14:05:38.944Z,1.30
2023-05-05T14:08:08.971Z,1.13
2023-05-05T14:10:37.681Z,1.47
2023-05-05T14:13:06.553Z,1.10
2023-05-05T14:15:35.234Z,1.20
2023-05-05T14:18:04.126Z,1.30
2023-05-05T14:20:32.730Z,1.30
2023-05-05T14:23:01.168Z,1.03
2023-05-05T14:25:31.196Z,1.30
2023-05-05T14:27:59.556Z,0.90
2023-05-05T14:30:27.996Z,1.30
2023-05-05T14:32:58.763Z,1.10
2023-05-05T14:35:27.310Z,1.20
2023-05-05T14:37:55.675Z,0.90
2023-05-05T14:40:24.945Z,1.03
2023-05-05T14:42:54.778Z,1.47
2023-05-05T14:45:23.353Z,1.57
2023-05-05T14:47:52.696Z,1.40
2023-05-05T14:50:21.152Z,1.63
2023-05-05T14:52:49.605Z,1.13
2023-05-05T14:55:20.718Z,1.30
2023-05-05T14:57:49.212Z,1.40
2023-05-05T15:00:19.661Z,1.50
2023-05-05T15:02:49.132Z,1.00
2023-05-05T15:05:17.866Z,1.37
2023-05-05T15:07:46.326Z,1.33
2023-05-05T15:10:15.052Z,1.63
2023-05-05T15:12:45.066Z,1.40
2023-05-05T15:15:13.677Z,1.40
2023-05-05T15:17:43.579Z,1.40
2023-05-05T15:20:12.861Z,1.60
2023-05-05T15:22:44.076Z,1.70
2023-05-05T15:25:15.322Z,1.53
2023-05-05T15:27:47.056Z,1.20
2023-05-05T15:30:16.105Z,2.30
2023-05-05T15:32:48.468Z,2.07
2023-05-05T15:35:17.140Z,1.80
2023-05-05T15:37:46.529Z,1.60
2023-05-05T15:40:15.080Z,1.90
2023-05-05T15:42:43.497Z,1.50
2023-05-05T15:45:13.202Z,1.80
2023-05-05T15:47:41.710Z,1.90
2023-05-05T15:50:12.120Z,2.33
2023-05-05T15:52:41.735Z,2.90
2023-05-05T15:55:11.544Z,3.10
2023-05-05T15:57:40.421Z,2.93
2023-05-05T16:00:13.096Z,1.93
2023-05-05T16:02:42.516Z,2.47
2023-05-05T16:05:12.449Z,2.10
2023-05-05T16:07:41.033Z,2.40
2023-05-05T16:10:10.795Z,2.53
2023-05-05T16:12:40.235Z,2.57
2023-05-05T16:15:09.907Z,2.33
2023-05-05T16:17:39.531Z,2.77
2023-05-05T16:20:09.809Z,2.30
2023-05-05T16:22:39.801Z,2.73
2023-05-05T16:25:10.040Z,2.40
2023-05-05T16:27:38.756Z,2.00
2023-05-05T16:30:08.928Z,2.50
2023-05-05T16:32:37.961Z,2.10
2023-05-05T16:35:07.849Z,2.00
2023-05-05T16:37:36.594Z,2.00
2023-05-05T16:40:07.608Z,1.90
2023-05-05T16:42:35.902Z,2.07
2023-05-05T16:45:04.629Z,2.00
2023-05-05T16:47:39.198Z,1.93
2023-05-05T16:50:09.035Z,2.20
2023-05-05T16:52:37.734Z,1.73
2023-05-05T16:55:09.318Z,1.87
2023-05-05T16:57:37.940Z,1.90
2023-05-05T17:00:07.988Z,2.00
2023-05-05T17:02:36.925Z,1.80
2023-05-05T17:05:06.004Z,2.00
2023-05-05T17:07:34.534Z,2.20
2023-05-05T17:10:03.396Z,2.30
2023-05-05T17:12:33.202Z,2.70
2023-05-05T17:15:01.625Z,2.70
2023-05-05T17:17:29.959Z,2.67
2023-05-05T17:19:58.418Z,2.20
2023-05-05T17:22:26.933Z,2.57
2023-05-05T17:24:55.449Z,2.07
2023-05-05T17:27:23.924Z,2.73
2023-05-05T17:29:54.670Z,2.23
2023-05-05T17:32:24.498Z,2.67
2023-05-05T17:34:53.156Z,2.77
2023-05-05T17:37:21.566Z,2.13
2023-05-05T17:39:50.124Z,2.37
2023-05-05T17:42:22.860Z,2.60
2023-05-05T17:44:53.399Z,2.60
2023-05-05T17:47:24.273Z,3.10
2023-05-05T17:49:54.574Z,2.97
2023-05-05T17:52:23.347Z,2.93
2023-05-05T17:54:52.683Z,3.10
2023-05-05T17:57:22.928Z,3.23
2023-05-05T17:59:53.532Z,3.10
2023-05-05T18:02:24.077Z,2.80
2023-05-05T18:04:52.636Z,2.97
2023-05-05T18:07:21.007Z,2.73
2023-05-05T18:09:49.998Z,2.97
2023-05-05T18:12:18.873Z,2.80
2023-05-05T18:14:48.618Z,3.10
2023-05-05T18:17:16.999Z,3.27
2023-05-05T18:19:49.092Z,3.20
2023-05-05T18:22:17.835Z,2.80
2023-05-05T18:24:47.310Z,3.20
2023-05-05T18:27:15.751Z,3.40
2023-05-05T18:29:44.034Z,3.37
2023-05-05T18:32:16.255Z,3.00
2023-05-05T18:34:46.604Z,3.20
2023-05-05T18:37:15.202Z,3.37
2023-05-05T18:39:45.114Z,3.13
2023-05-05T18:42:13.921Z,3.73
2023-05-05T18:44:42.658Z,2.97
2023-05-05T18:47:11.176Z,3.40
2023-05-05T18:49:39.815Z,3.30
2023-05-05T18:52:10.416Z,3.27
2023-05-05T18:54:39.840Z,3.40
2023-05-05T18:57:08.215Z,3.50
2023-05-05T18:59:36.705Z,3.37
2023-05-05T19:02:05.007Z,2.90
2023-05-05T19:04:37.450Z,3.53
2023-05-05T19:07:07.684Z,3.47
2023-05-05T19:09:37.579Z,2.67
2023-05-05T19:12:06.427Z,3.10
2023-05-05T19:14:34.759Z,3.17
2023-05-05T19:17:03.683Z,3.30
2023-05-05T19:19:33.039Z,3.60
2023-05-05T19:22:02.992Z,3.37
2023-05-05T19:24:38.066Z,3.30
2023-05-05T19:27:15.430Z,3.83
2023-05-05T19:29:45.199Z,3.30
2023-05-05T19:32:17.321Z,3.10
2023-05-05T19:34:46.058Z,3.20
2023-05-05T19:37:14.402Z,2.83
2023-05-05T19:39:44.306Z,3.23
2023-05-05T19:42:15.640Z,3.27
2023-05-05T19:44:44.103Z,2.63
2023-05-05T19:47:12.965Z,2.80
2023-05-05T19:49:41.509Z,2.83
2023-05-05T19:52:09.778Z,2.57
2023-05-05T19:54:38.136Z,2.60
2023-05-05T19:57:07.294Z,2.27
2023-05-05T19:59:37.195Z,2.50
2023-05-05T20:02:05.844Z,2.67
2023-05-05T20:04:34.170Z,2.33
2023-05-05T20:07:03.743Z,2.10
2023-05-05T20:09:32.406Z,2.10
2023-05-05T20:12:01.992Z,2.00
2023-05-05T20:14:31.712Z,1.67
2023-05-05T20:17:01.506Z,2.33
2023-05-05T20:19:30.018Z,1.97
2023-05-05T20:21:58.981Z,2.20
2023-05-05T20:24:28.911Z,2.17
2023-05-05T20:27:02.187Z,2.30
2023-05-05T20:29:33.587Z,2.57
2023-05-05T20:32:03.866Z,2.10
2023-05-05T20:34:32.400Z,2.70
2023-05-05T20:37:00.835Z,2.50
2023-05-05T20:39:29.393Z,2.57
2023-05-05T20:41:57.794Z,2.37
2023-05-05T20:44:27.068Z,2.60
2023-05-05T20:46:55.570Z,2.63
2023-05-05T20:49:28.285Z,2.60
2023-05-05T20:51:57.044Z,2.70
2023-05-05T20:54:26.793Z,2.50
2023-05-05T20:56:58.176Z,2.53
2023-05-05T20:59:28.183Z,2.67
2023-05-05T21:01:58.348Z,2.53
2023-05-05T21:04:28.228Z,2.60
2023-05-05T21:06:57.477Z,2.67
2023-05-05T21:09:26.090Z,2.53
2023-05-05T21:11:54.625Z,2.30
2023-05-05T21:14:23.486Z,2.30
2023-05-05T21:16:52.045Z,2.40
2023-05-05T21:19:21.243Z,2.20
2023-05-05T21:21:51.278Z,2.33
2023-05-05T21:24:19.693Z,2.33
2023-05-05T21:26:48.236Z,2.30
2023-05-05T21:29:16.656Z,2.10
2023-05-05T21:31:44.966Z,2.30
2023-05-05T21:34:13.496Z,2.17
2023-05-05T21:36:41.881Z,2.17
2023-05-05T21:39:12.246Z,2.30
2023-05-05T21:41:40.673Z,2.60
2023-05-05T21:44:10.611Z,2.40
2023-05-05T21:46:39.055Z,2.17
2023-05-05T21:49:14.103Z,2.40
2023-05-05T21:51:43.209Z,2.40
2023-05-05T21:54:13.248Z,2.70
2023-05-05T21:56:41.809Z,2.47
2023-05-05T21:59:10.153Z,2.63
2023-05-05T22:01:38.899Z,2.67
2023-05-05T22:04:07.668Z,2.77
2023-05-05T22:06:36.492Z,2.50
2023-05-05T22:09:04.921Z,2.20
2023-05-05T22:11:34.764Z,2.70
2023-05-05T22:14:03.282Z,3.00
2023-05-05T22:16:31.735Z,2.50
2023-05-05T22:19:00.224Z,2.23
2023-05-05T22:21:29.772Z,2.60
2023-05-05T22:24:00.080Z,2.77
2023-05-05T22:26:29.499Z,2.50
2023-05-05T22:28:59.330Z,2.53
2023-05-05T22:31:27.850Z,2.80
2023-05-05T22:33:57.488Z,2.50
2023-05-05T22:36:27.660Z,2.70
2023-05-05T22:38:56.183Z,2.60
2023-05-05T22:41:24.997Z,2.40
2023-05-05T22:43:54.002Z,2.87
2023-05-05T22:46:24.043Z,2.60
2023-05-05T22:48:54.163Z,2.70
2023-05-05T22:51:22.538Z,3.03
2023-05-05T22:53:51.076Z,2.87
2023-05-05T22:56:19.714Z,2.70
2023-05-05T22:58:48.341Z,2.70
2023-05-05T23:01:16.893Z,3.13
2023-05-05T23:03:47.725Z,3.20
2023-05-05T23:06:16.296Z,3.00
2023-05-05T23:08:44.737Z,3.07
2023-05-05T23:11:13.131Z,2.93
2023-05-05T23:13:41.577Z,3.00
2023-05-05T23:16:10.023Z,3.10
2023-05-05T23:18:38.829Z,3.13
2023-05-05T23:21:08.592Z,2.90
2023-05-05T23:23:38.277Z,3.23
2023-05-05T23:26:06.584Z,3.30
2023-05-05T23:28:34.920Z,3.40
2023-05-05T23:31:06.168Z,3.33
2023-05-05T23:33:34.556Z,3.40
2023-05-05T23:36:03.003Z,3.40
2023-05-05T23:38:32.718Z,3.40
2023-05-05T23:41:01.102Z,4.00
2023-05-05T23:43:29.745Z,3.30
2023-05-05T23:45:58.294Z,4.00
2023-05-05T23:48:27.249Z,2.93
2023-05-05T23:50:55.946Z,3.43
2023-05-05T23:53:24.332Z,3.77
2023-05-05T23:55:54.258Z,3.73
2023-05-05T23:58:23.188Z,3.00
